Time;durP1;ratioP1;P1;durP2;ratioP2;P2;SDS_P1;SDS_P2;PMS_P1;PMS_P2;Temp;Humidity;BMP_temperature;BMP_pressure;BME280_temperature;BME280_humidity;BME280_pressure;Samples;Min_cycle;Max_cycle;Signal;HPM_P1;HPM_P2
2022/05/17 00:02:05;;;;;;;;;;;24.20;99.90;;;;;;5053206;28;20343;-51
2022/05/17 00:04:31;;;;;;;;;;;24.20;99.90;;;;;;5052781;28;19904;-50
2022/05/17 00:06:57;;;;;;;;;;;24.20;99.90;;;;;;5052821;28;20362;-51
2022/05/17 00:09:23;;;;;;;;;;;24.20;99.90;;;;;;5052747;28;19991;-50
2022/05/17 00:11:49;;;;;;;;;;;24.10;99.90;;;;;;5052148;28;19995;-50
2022/05/17 00:14:15;;;;;;;;;;;24.10;99.90;;;;;;5052580;28;19908;-51
2022/05/17 00:16:41;;;;;;;;;;;24.10;99.90;;;;;;5052631;28;19904;-50
2022/05/17 00:19:08;;;;;;;;;;;24.10;99.90;;;;;;5052646;28;19909;-50
2022/05/17 00:21:35;;;;;;;;;;;24.10;99.90;;;;;;5051148;28;19909;-50
2022/05/17 00:24:00;;;;;;;;;;;24.10;99.90;;;;;;5052735;28;19916;-50
2022/05/17 00:26:26;;;;;;;;;;;24.10;99.90;;;;;;5052402;28;19916;-50
2022/05/17 00:28:52;;;;;;;;;;;24.10;99.90;;;;;;5052399;28;19987;-50
2022/05/17 00:31:18;;;;;;;;;;;24.10;99.90;;;;;;5052533;28;19950;-50
2022/05/17 00:33:43;;;;;;;;;;;24.00;99.90;;;;;;5052200;28;19912;-50
2022/05/17 00:36:09;;;;;;;;;;;24.10;99.90;;;;;;5052236;28;20272;-50
2022/05/17 00:38:35;;;;;;;;;;;24.10;99.90;;;;;;5052208;28;19905;-51
2022/05/17 00:41:01;;;;;;;;;;;24.00;99.90;;;;;;5052192;28;19916;-50
2022/05/17 00:44:42;;;;;;;;;;;24.10;99.90;;;;;;5052131;28;19924;-50
2022/05/17 00:46:18;;;;;;;;;;;24.00;99.90;;;;;;5051855;28;19913;-50
2022/05/17 00:48:44;;;;;;;;;;;24.00;99.90;;;;;;5052079;28;19905;-50
2022/05/17 00:51:10;;;;;;;;;;;24.00;99.90;;;;;;5052308;28;20403;-50
2022/05/17 00:53:36;;;;;;;;;;;24.00;99.90;;;;;;5052033;28;20401;-50
2022/05/17 00:56:06;;;;;;;;;;;24.00;99.90;;;;;;5052006;28;19904;-50
2022/05/17 00:58:35;;;;;;;;;;;24.00;99.90;;;;;;5050533;28;20482;-50
2022/05/17 01:01:21;;;;;;;;;;;24.00;99.90;;;;;;5064544;22;19967;-47
2022/05/17 01:03:55;;;;;;;;;;;24.00;99.90;;;;;;5049760;28;19944;-47
2022/05/17 01:06:22;;;;;;;;;;;24.00;99.90;;;;;;5051791;28;19967;-47
2022/05/17 01:08:48;;;;;;;;;;;24.00;99.90;;;;;;5051795;28;20293;-47
2022/05/17 01:11:13;;;;;;;;;;;24.00;99.90;;;;;;5051767;28;19958;-47
2022/05/17 01:16:24;;;;;;;;;;;23.90;99.90;;;;;;5052070;28;19911;-47
2022/05/17 01:18:50;;;;;;;;;;;23.90;99.90;;;;;;5051712;28;19912;-47
2022/05/17 01:21:15;;;;;;;;;;;23.90;99.90;;;;;;5051316;28;19905;-47
2022/05/17 01:23:41;;;;;;;;;;;23.90;99.90;;;;;;5051173;28;19907;-46
2022/05/17 01:26:11;;;;;;;;;;;23.90;99.90;;;;;;5051620;28;19913;-46
2022/05/17 01:28:37;;;;;;;;;;;23.90;99.90;;;;;;5051468;28;19908;-46
2022/05/17 01:31:07;;;;;;;;;;;23.80;99.90;;;;;;5051558;28;19905;-46
2022/05/17 01:33:34;;;;;;;;;;;23.90;99.90;;;;;;5051424;28;19905;-46
2022/05/17 01:36:00;;;;;;;;;;;23.90;99.90;;;;;;5051702;28;19905;-46
2022/05/17 01:38:27;;;;;;;;;;;23.90;99.90;;;;;;5051579;28;19974;-46
2022/05/17 01:40:52;;;;;;;;;;;23.90;99.90;;;;;;5051449;28;19940;-46
2022/05/17 01:43:18;;;;;;;;;;;23.80;99.90;;;;;;5051428;28;19952;-46
2022/05/17 01:45:44;;;;;;;;;;;23.90;99.90;;;;;;5051367;28;19913;-46
2022/05/17 01:48:10;;;;;;;;;;;23.90;99.90;;;;;;5051563;28;19912;-47
2022/05/17 01:50:36;;;;;;;;;;;23.90;99.90;;;;;;5051232;28;19947;-46
2022/05/17 01:53:02;;;;;;;;;;;23.90;99.90;;;;;;5051368;28;19905;-46
2022/05/17 01:55:27;;;;;;;;;;;23.80;99.90;;;;;;5051622;28;20368;-46
2022/05/17 01:57:53;;;;;;;;;;;23.80;99.90;;;;;;5051277;28;20178;-46
2022/05/17 02:00:20;;;;;;;;;;;23.80;99.90;;;;;;5051860;28;20299;-46
2022/05/17 02:02:45;;;;;;;;;;;23.80;99.90;;;;;;5051378;28;20002;-46
2022/05/17 02:05:11;;;;;;;;;;;23.80;99.90;;;;;;5051246;28;19917;-46
2022/05/17 02:07:37;;;;;;;;;;;23.70;99.90;;;;;;5051366;28;19928;-46
2022/05/17 02:10:03;;;;;;;;;;;23.70;99.90;;;;;;5051316;28;19904;-47
2022/05/17 02:12:29;;;;;;;;;;;23.70;99.90;;;;;;5051434;28;19912;-47
2022/05/17 02:14:54;;;;;;;;;;;23.70;99.90;;;;;;5051059;28;19905;-47
2022/05/17 02:17:20;;;;;;;;;;;23.70;99.90;;;;;;5051171;28;19909;-47
2022/05/17 02:19:46;;;;;;;;;;;23.70;99.90;;;;;;5051246;28;19905;-46
2022/05/17 02:22:11;;;;;;;;;;;23.60;99.90;;;;;;5051077;28;19962;-46
2022/05/17 02:24:37;;;;;;;;;;;23.60;99.90;;;;;;5051056;28;20346;-47
2022/05/17 02:27:03;;;;;;;;;;;23.60;99.90;;;;;;5051175;28;19912;-47
2022/05/17 02:29:30;;;;;;;;;;;23.50;99.90;;;;;;5051123;28;20299;-47
2022/05/17 02:31:56;;;;;;;;;;;23.50;99.90;;;;;;5051000;28;19905;-47
2022/05/17 02:34:21;;;;;;;;;;;23.50;99.90;;;;;;5053089;28;19905;-46
2022/05/17 02:36:47;;;;;;;;;;;23.50;99.90;;;;;;5054695;28;19984;-47
2022/05/17 02:39:12;;;;;;;;;;;23.50;99.90;;;;;;5054540;28;19909;-47
2022/05/17 02:41:38;;;;;;;;;;;23.40;99.90;;;;;;5054418;28;20296;-47
2022/05/17 02:44:04;;;;;;;;;;;23.40;99.90;;;;;;5054757;28;20020;-47
2022/05/17 02:46:30;;;;;;;;;;;23.40;99.90;;;;;;5054321;28;19912;-47
2022/05/17 02:48:56;;;;;;;;;;;23.40;99.90;;;;;;5054406;28;19912;-47
2022/05/17 02:51:21;;;;;;;;;;;23.40;99.90;;;;;;5054327;28;19908;-47
2022/05/17 02:53:47;;;;;;;;;;;23.30;99.90;;;;;;5054281;28;19912;-47
2022/05/17 02:56:13;;;;;;;;;;;23.30;99.90;;;;;;5054367;28;20284;-47
2022/05/17 02:58:38;;;;;;;;;;;23.30;99.90;;;;;;5054226;28;19995;-47
2022/05/17 03:01:05;;;;;;;;;;;23.30;99.90;;;;;;5054642;28;19969;-47
2022/05/17 03:03:31;;;;;;;;;;;23.30;99.90;;;;;;5054321;28;20404;-47
2022/05/17 03:05:56;;;;;;;;;;;23.30;99.90;;;;;;5053939;28;20007;-47
2022/05/17 03:08:22;;;;;;;;;;;23.30;99.90;;;;;;5053965;28;19905;-47
2022/05/17 03:10:48;;;;;;;;;;;23.30;99.90;;;;;;5053925;28;19912;-47
2022/05/17 03:13:14;;;;;;;;;;;23.20;99.90;;;;;;5053924;28;20372;-47
2022/05/17 03:15:40;;;;;;;;;;;23.30;99.90;;;;;;5053789;28;19905;-48
2022/05/17 03:18:06;;;;;;;;;;;23.20;99.90;;;;;;5053856;28;19959;-47
2022/05/17 03:20:32;;;;;;;;;;;23.20;99.90;;;;;;5053894;28;19909;-47
2022/05/17 03:22:57;;;;;;;;;;;23.20;99.90;;;;;;5053898;28;19950;-47
2022/05/17 03:25:23;;;;;;;;;;;23.10;99.90;;;;;;5053671;28;20272;-47
2022/05/17 03:27:49;;;;;;;;;;;23.20;99.90;;;;;;5053538;28;19940;-47
2022/05/17 03:30:15;;;;;;;;;;;23.10;99.90;;;;;;5053946;28;19927;-47
2022/05/17 03:32:41;;;;;;;;;;;23.10;99.90;;;;;;5053483;28;20336;-47
2022/05/17 03:35:07;;;;;;;;;;;23.10;99.90;;;;;;5053867;28;19923;-47
2022/05/17 03:37:32;;;;;;;;;;;23.10;99.90;;;;;;5053630;28;20474;-47
2022/05/17 03:39:58;;;;;;;;;;;23.10;99.90;;;;;;5053414;28;19905;-46
2022/05/17 03:42:24;;;;;;;;;;;23.10;99.90;;;;;;5053478;28;19911;-47
2022/05/17 03:44:50;;;;;;;;;;;23.10;99.90;;;;;;5048992;28;19905;-46
2022/05/17 03:47:16;;;;;;;;;;;23.10;99.90;;;;;;5042009;28;20050;-46
2022/05/17 03:49:41;;;;;;;;;;;23.10;99.90;;;;;;5052059;28;19912;-46
2022/05/17 03:52:08;;;;;;;;;;;23.10;99.90;;;;;;5051747;28;19904;-46
2022/05/17 03:54:34;;;;;;;;;;;23.10;99.90;;;;;;5052470;28;19960;-46
2022/05/17 03:56:59;;;;;;;;;;;23.10;99.90;;;;;;5052779;28;20292;-46
2022/05/17 03:59:25;;;;;;;;;;;23.10;99.90;;;;;;5053165;28;19905;-45
2022/05/17 04:01:51;;;;;;;;;;;23.10;99.90;;;;;;5053092;28;19916;-46
2022/05/17 04:04:16;;;;;;;;;;;23.10;99.90;;;;;;5052911;28;19908;-46
2022/05/17 04:06:42;;;;;;;;;;;23.10;99.90;;;;;;5052737;28;19921;-46
2022/05/17 04:09:08;;;;;;;;;;;23.10;99.90;;;;;;5052807;28;19904;-46
2022/05/17 04:11:34;;;;;;;;;;;23.10;99.90;;;;;;5052854;28;19905;-46
2022/05/17 04:14:00;;;;;;;;;;;23.10;99.90;;;;;;5052706;28;19913;-46
2022/05/17 04:16:30;;;;;;;;;;;23.10;99.90;;;;;;5052695;28;19911;-46
2022/05/17 04:18:55;;;;;;;;;;;23.10;99.90;;;;;;5052532;28;20365;-46
2022/05/17 04:21:21;;;;;;;;;;;23.10;99.90;;;;;;5052460;28;19957;-46
2022/05/17 04:23:46;;;;;;;;;;;23.10;99.90;;;;;;5052395;28;19912;-46
2022/05/17 04:26:14;;;;;;;;;;;23.10;99.90;;;;;;5052304;28;19961;-46
2022/05/17 04:28:39;;;;;;;;;;;23.10;99.90;;;;;;5052604;28;19905;-46
2022/05/17 04:31:05;;;;;;;;;;;23.10;99.90;;;;;;5052460;28;19905;-45
2022/05/17 04:33:31;;;;;;;;;;;23.10;99.90;;;;;;5052274;28;19909;-46
2022/05/17 04:35:56;;;;;;;;;;;23.10;99.90;;;;;;5052402;28;20039;-46
2022/05/17 04:38:22;;;;;;;;;;;23.10;99.90;;;;;;5050955;28;19904;-46
2022/05/17 04:40:48;;;;;;;;;;;23.10;99.90;;;;;;5052289;28;19905;-45
2022/05/17 04:43:13;;;;;;;;;;;23.10;99.90;;;;;;5052208;28;19905;-45
2022/05/17 04:45:41;;;;;;;;;;;23.10;99.90;;;;;;5052332;28;19999;-46
2022/05/17 04:48:07;;;;;;;;;;;23.10;99.90;;;;;;5052297;28;19905;-46
2022/05/17 04:50:33;;;;;;;;;;;23.10;99.90;;;;;;5052154;28;19905;-46
2022/05/17 04:52:59;;;;;;;;;;;23.10;99.90;;;;;;5052042;28;20308;-46
2022/05/17 04:55:25;;;;;;;;;;;23.10;99.90;;;;;;5051893;28;20275;-45
2022/05/17 04:57:51;;;;;;;;;;;23.10;99.90;;;;;;5051630;28;20380;-46
2022/05/17 05:00:18;;;;;;;;;;;23.10;99.90;;;;;;5051728;28;19966;-46
2022/05/17 05:02:44;;;;;;;;;;;23.10;99.90;;;;;;5051924;28;19912;-46
2022/05/17 05:05:10;;;;;;;;;;;23.10;99.90;;;;;;5052215;28;19917;-51
2022/05/17 05:07:35;;;;;;;;;;;23.10;99.90;;;;;;5051840;28;19911;-46
2022/05/17 05:10:01;;;;;;;;;;;23.10;99.90;;;;;;5051744;28;19905;-47
2022/05/17 05:12:27;;;;;;;;;;;23.10;99.90;;;;;;5051703;28;19928;-47
2022/05/17 05:14:52;;;;;;;;;;;23.10;99.90;;;;;;5051729;28;20276;-47
2022/05/17 05:17:18;;;;;;;;;;;23.10;99.90;;;;;;5051554;28;19904;-47
2022/05/17 05:19:43;;;;;;;;;;;23.10;99.90;;;;;;5051723;28;19905;-47
2022/05/17 05:22:09;;;;;;;;;;;23.10;99.90;;;;;;5051906;28;20356;-46
2022/05/17 05:24:35;;;;;;;;;;;23.10;99.90;;;;;;5051749;28;19909;-47
2022/05/17 05:27:00;;;;;;;;;;;23.10;99.90;;;;;;5051498;28;20261;-47
2022/05/17 05:29:26;;;;;;;;;;;23.20;99.90;;;;;;5051682;28;19927;-47
2022/05/17 05:31:52;;;;;;;;;;;23.20;99.90;;;;;;5051454;28;20313;-46
2022/05/17 05:34:17;;;;;;;;;;;23.30;99.90;;;;;;5051591;28;19912;-47
2022/05/17 05:36:44;;;;;;;;;;;23.30;99.90;;;;;;5051697;28;19916;-47
2022/05/17 05:39:10;;;;;;;;;;;23.30;99.90;;;;;;5051846;28;19943;-47
2022/05/17 05:41:35;;;;;;;;;;;23.20;99.90;;;;;;5051677;28;19960;-47
2022/05/17 05:44:01;;;;;;;;;;;23.20;99.90;;;;;;5051480;28;20334;-47
2022/05/17 05:46:27;;;;;;;;;;;23.20;99.90;;;;;;5051254;28;19919;-47
2022/05/17 05:48:53;;;;;;;;;;;23.20;99.90;;;;;;5051368;28;20344;-47
2022/05/17 05:51:19;;;;;;;;;;;23.20;99.90;;;;;;5051174;28;20042;-47
2022/05/17 05:53:45;;;;;;;;;;;23.20;99.90;;;;;;5051547;28;20321;-47
2022/05/17 05:56:11;;;;;;;;;;;23.20;99.90;;;;;;5051567;28;19940;-47
2022/05/17 05:58:39;;;;;;;;;;;23.10;99.90;;;;;;5051363;28;19912;-47
2022/05/17 06:01:05;;;;;;;;;;;23.10;99.90;;;;;;5050984;28;20008;-47
2022/05/17 06:03:32;;;;;;;;;;;23.20;99.90;;;;;;5051346;28;19908;-46
2022/05/17 06:05:57;;;;;;;;;;;23.10;99.90;;;;;;5051053;28;19949;-46
2022/05/17 06:08:23;;;;;;;;;;;23.20;99.90;;;;;;5052051;28;20261;-47
2022/05/17 06:10:49;;;;;;;;;;;23.20;99.90;;;;;;5053617;28;19928;-47
2022/05/17 06:13:16;;;;;;;;;;;23.20;99.90;;;;;;5055201;28;19905;-47
2022/05/17 06:15:42;;;;;;;;;;;23.20;99.90;;;;;;5054851;28;19905;-47
2022/05/17 06:18:08;;;;;;;;;;;23.20;99.90;;;;;;5054930;28;20004;-47
2022/05/17 06:20:34;;;;;;;;;;;23.20;99.90;;;;;;5054803;28;19909;-47
2022/05/17 06:23:00;;;;;;;;;;;23.20;99.90;;;;;;5054682;28;19905;-47
2022/05/17 06:25:26;;;;;;;;;;;23.20;99.90;;;;;;5054798;28;20430;-47
2022/05/17 06:27:51;;;;;;;;;;;23.30;99.90;;;;;;5054601;28;20376;-48
2022/05/17 06:30:17;;;;;;;;;;;23.30;99.90;;;;;;5054992;28;19905;-47
2022/05/17 06:32:43;;;;;;;;;;;23.30;99.90;;;;;;5054731;28;20413;-47
2022/05/17 06:35:09;;;;;;;;;;;23.30;99.90;;;;;;5054563;28;19962;-47
2022/05/17 06:37:35;;;;;;;;;;;23.30;99.90;;;;;;5054626;28;19950;-47
2022/05/17 06:40:01;;;;;;;;;;;23.30;99.90;;;;;;5054580;28;20276;-47
2022/05/17 06:42:30;;;;;;;;;;;23.30;99.90;;;;;;5054523;28;20253;-47
2022/05/17 06:44:56;;;;;;;;;;;23.30;99.90;;;;;;5054433;28;19904;-47
2022/05/17 06:47:22;;;;;;;;;;;23.30;99.90;;;;;;5054443;28;19905;-47
2022/05/17 06:49:47;;;;;;;;;;;23.30;99.90;;;;;;5054538;28;19904;-47
2022/05/17 06:52:13;;;;;;;;;;;23.40;99.90;;;;;;5054301;28;19913;-47
2022/05/17 06:54:40;;;;;;;;;;;23.40;99.90;;;;;;5054233;28;19912;-46
2022/05/17 06:57:07;;;;;;;;;;;23.40;99.90;;;;;;5054129;28;19905;-47
2022/05/17 06:59:34;;;;;;;;;;;23.40;99.90;;;;;;5051702;28;19959;-46
2022/05/17 07:02:00;;;;;;;;;;;23.40;99.90;;;;;;5053881;28;19908;-47
2022/05/17 07:04:29;;;;;;;;;;;23.40;99.90;;;;;;5054017;28;19904;-47
2022/05/17 07:06:57;;;;;;;;;;;23.50;99.90;;;;;;5053960;28;20440;-47
2022/05/17 07:09:23;;;;;;;;;;;23.50;99.90;;;;;;5054081;28;19904;-46
2022/05/17 07:14:37;;;;;;;;;;;23.50;99.90;;;;;;5054023;28;19911;-47
2022/05/17 07:17:06;;;;;;;;;;;23.50;99.90;;;;;;5053674;28;19912;-46
2022/05/17 07:19:32;;;;;;;;;;;23.60;99.90;;;;;;5053824;28;20447;-46
2022/05/17 07:21:59;;;;;;;;;;;23.70;99.90;;;;;;5051934;28;19999;-46
2022/05/17 07:24:24;;;;;;;;;;;23.70;99.90;;;;;;5053246;28;19940;-46
2022/05/17 07:26:50;;;;;;;;;;;23.70;99.90;;;;;;5053261;28;20442;-47
2022/05/17 07:29:16;;;;;;;;;;;23.70;99.90;;;;;;5052062;28;20315;-46
2022/05/17 07:31:41;;;;;;;;;;;23.70;99.90;;;;;;5053437;28;19916;-48
2022/05/17 07:34:07;;;;;;;;;;;23.80;99.90;;;;;;5053624;28;19909;-47
2022/05/17 07:36:32;;;;;;;;;;;23.80;99.90;;;;;;5052646;28;19911;-47
2022/05/17 07:38:59;;;;;;;;;;;23.80;99.90;;;;;;5053057;28;19914;-47
2022/05/17 07:41:25;;;;;;;;;;;23.80;99.90;;;;;;5053497;28;19947;-47
2022/05/17 07:43:51;;;;;;;;;;;23.90;99.90;;;;;;5053384;28;19947;-48
2022/05/17 07:46:16;;;;;;;;;;;23.90;99.90;;;;;;5053163;28;19920;-48
2022/05/17 07:48:42;;;;;;;;;;;23.90;99.90;;;;;;5053158;28;19905;-48
2022/05/17 07:51:08;;;;;;;;;;;24.00;99.90;;;;;;5053148;28;20336;-48
2022/05/17 07:53:33;;;;;;;;;;;23.90;99.90;;;;;;5053132;28;19965;-48
2022/05/17 07:56:00;;;;;;;;;;;24.00;99.90;;;;;;5052965;28;19916;-48
2022/05/17 07:58:25;;;;;;;;;;;24.00;99.90;;;;;;5052953;28;19905;-48
2022/05/17 08:00:51;;;;;;;;;;;24.00;99.90;;;;;;5052952;28;20368;-48
2022/05/17 08:03:18;;;;;;;;;;;24.10;99.90;;;;;;5052883;28;19905;-46
2022/05/17 08:05:43;;;;;;;;;;;24.10;99.90;;;;;;5052805;28;19913;-46
2022/05/17 08:08:09;;;;;;;;;;;24.10;99.90;;;;;;5052864;28;19912;-50
2022/05/17 08:10:35;;;;;;;;;;;24.10;99.90;;;;;;5052679;28;19999;-48
2022/05/17 08:13:01;;;;;;;;;;;24.10;99.90;;;;;;5052649;28;20084;-48
2022/05/17 08:15:28;;;;;;;;;;;24.10;99.90;;;;;;5052712;28;19913;-48
2022/05/17 08:17:55;;;;;;;;;;;24.10;99.90;;;;;;5052875;28;19928;-48
2022/05/17 08:20:20;;;;;;;;;;;24.10;99.90;;;;;;5052767;28;19904;-48
2022/05/17 08:22:46;;;;;;;;;;;24.10;99.90;;;;;;5052479;28;20072;-48
2022/05/17 08:27:57;;;;;;;;;;;24.10;99.90;;;;;;5052700;28;19910;-48
2022/05/17 08:30:24;;;;;;;;;;;24.10;99.90;;;;;;5052545;28;19905;-48
2022/05/17 08:35:36;;;;;;;;;;;24.10;99.90;;;;;;5052691;28;19911;-48
2022/05/17 08:38:01;;;;;;;;;;;24.10;99.90;;;;;;5052244;28;20282;-47
2022/05/17 08:40:30;;;;;;;;;;;24.10;99.90;;;;;;5052166;28;19911;-48
2022/05/17 08:42:55;;;;;;;;;;;24.10;99.90;;;;;;5052297;28;20370;-47
2022/05/17 08:45:23;;;;;;;;;;;24.10;99.90;;;;;;5052065;28;20011;-47
2022/05/17 08:47:53;;;;;;;;;;;24.10;99.90;;;;;;5052132;28;20409;-47
2022/05/17 08:50:22;;;;;;;;;;;24.10;99.90;;;;;;5051990;28;19927;-47
2022/05/17 08:52:48;;;;;;;;;;;24.10;99.90;;;;;;5052177;28;20360;-47
2022/05/17 08:55:32;;;;;;;;;;;24.10;99.90;;;;;;5051913;28;19963;-47
2022/05/17 08:58:16;;;;;;;;;;;24.10;99.90;;;;;;5051934;28;19959;-47
2022/05/17 09:00:44;;;;;;;;;;;24.10;99.90;;;;;;5051778;28;19971;-47
2022/05/17 09:03:29;;;;;;;;;;;24.10;99.90;;;;;;5050608;28;19921;-47
2022/05/17 09:06:07;;;;;;;;;;;24.10;99.90;;;;;;5044365;28;19919;-47
2022/05/17 09:08:47;;;;;;;;;;;24.10;99.90;;;;;;5051854;28;20378;-48
2022/05/17 09:11:12;;;;;;;;;;;24.10;99.90;;;;;;5051871;28;19909;-47
2022/05/17 09:13:56;;;;;;;;;;;24.10;99.90;;;;;;5051767;28;19908;-47
2022/05/17 09:16:23;;;;;;;;;;;24.20;99.90;;;;;;5051805;28;19911;-48
2022/05/17 09:18:49;;;;;;;;;;;24.20;99.90;;;;;;5051600;28;19908;-48
2022/05/17 09:21:30;;;;;;;;;;;24.20;99.90;;;;;;5051469;28;19904;-47
2022/05/17 09:24:06;;;;;;;;;;;24.20;99.90;;;;;;5051758;28;19905;-47
2022/05/17 09:26:32;;;;;;;;;;;24.20;99.90;;;;;;5051480;28;19912;-45
2022/05/17 09:29:04;;;;;;;;;;;24.30;99.90;;;;;;5051814;28;19905;-48
2022/05/17 09:31:32;;;;;;;;;;;24.30;99.90;;;;;;5050197;28;20348;-47
2022/05/17 09:34:03;;;;;;;;;;;24.30;99.90;;;;;;5051563;28;20260;-47
2022/05/17 09:36:40;;;;;;;;;;;24.30;99.90;;;;;;5051459;28;19904;-46
2022/05/17 09:39:06;;;;;;;;;;;24.30;99.90;;;;;;5051454;28;19905;-47
2022/05/17 09:41:35;;;;;;;;;;;24.30;99.90;;;;;;5051448;28;19905;-47
2022/05/17 09:44:04;;;;;;;;;;;24.30;99.90;;;;;;5053284;28;19932;-47
2022/05/17 09:46:32;;;;;;;;;;;24.40;99.90;;;;;;5055539;28;19924;-48
2022/05/17 09:54:43;;;;;;;;;;;24.40;99.90;;;;;;5055652;28;20224;-47
2022/05/17 09:57:15;;;;;;;;;;;24.50;99.90;;;;;;5055331;28;19919;-47
2022/05/17 09:59:41;;;;;;;;;;;24.50;99.90;;;;;;5055252;28;19944;-47
2022/05/17 10:02:29;;;;;;;;;;;24.60;99.90;;;;;;5054014;28;20097;-47
2022/05/17 10:04:55;;;;;;;;;;;24.60;99.90;;;;;;5055338;28;19913;-47
2022/05/17 10:07:22;;;;;;;;;;;24.60;99.90;;;;;;5055104;28;19924;-47
2022/05/17 10:09:49;;;;;;;;;;;24.70;99.90;;;;;;5055254;28;19995;-47
2022/05/17 10:12:29;;;;;;;;;;;24.70;99.90;;;;;;5055548;28;19912;-47
2022/05/17 10:14:56;;;;;;;;;;;24.70;99.90;;;;;;5054921;28;19940;-47
2022/05/17 10:17:37;;;;;;;;;;;24.70;99.90;;;;;;5055209;28;19978;-48
2022/05/17 10:20:36;;;;;;;;;;;24.80;99.90;;;;;;5054947;28;20367;-48
2022/05/17 10:23:08;;;;;;;;;;;24.80;99.90;;;;;;5032158;28;19904;-48
2022/05/17 10:25:37;;;;;;;;;;;24.80;99.90;;;;;;5054854;28;19913;-48
2022/05/17 10:28:09;;;;;;;;;;;24.90;99.90;;;;;;5054972;28;19912;-48
2022/05/17 10:30:34;;;;;;;;;;;24.90;99.90;;;;;;5054546;28;19916;-48
2022/05/17 10:33:03;;;;;;;;;;;24.90;99.90;;;;;;5054687;28;19912;-48
2022/05/17 10:35:35;;;;;;;;;;;24.90;99.90;;;;;;5054788;28;19905;-48
2022/05/17 10:38:10;;;;;;;;;;;24.90;99.90;;;;;;5054618;28;19912;-48
2022/05/17 10:40:43;;;;;;;;;;;25.00;99.90;;;;;;5054477;28;19912;-48
2022/05/17 10:43:10;;;;;;;;;;;25.00;99.90;;;;;;5054406;28;19901;-48
2022/05/17 10:45:36;;;;;;;;;;;25.00;99.90;;;;;;5054476;28;19913;-48
2022/05/17 10:48:21;;;;;;;;;;;25.00;99.90;;;;;;5054502;28;20283;-48
2022/05/17 10:50:53;;;;;;;;;;;25.00;99.90;;;;;;5054209;28;19912;-48
2022/05/17 10:53:27;;;;;;;;;;;25.00;99.90;;;;;;5054174;28;19905;-48
2022/05/17 10:56:06;;;;;;;;;;;25.10;99.90;;;;;;5053826;28;19905;-48
2022/05/17 10:58:41;;;;;;;;;;;25.10;99.90;;;;;;5054253;28;19908;-48
2022/05/17 11:01:14;;;;;;;;;;;25.10;99.90;;;;;;5053946;28;20368;-48
2022/05/17 11:03:49;;;;;;;;;;;25.20;99.90;;;;;;5054028;28;19913;-48
2022/05/17 11:06:37;;;;;;;;;;;25.20;99.90;;;;;;5054110;28;20284;-48
2022/05/17 11:09:06;;;;;;;;;;;25.20;99.90;;;;;;5053802;28;20348;-48
2022/05/17 11:11:31;;;;;;;;;;;25.20;99.90;;;;;;5054122;28;19905;-47
2022/05/17 11:14:17;;;;;;;;;;;25.20;99.90;;;;;;5053916;28;19912;-47
2022/05/17 11:16:55;;;;;;;;;;;25.30;99.90;;;;;;5053327;28;19905;-47
2022/05/17 11:19:42;;;;;;;;;;;25.30;99.90;;;;;;5053715;28;20360;-47
2022/05/17 11:22:13;;;;;;;;;;;25.30;99.90;;;;;;5053683;28;19909;-47
2022/05/17 11:24:38;;;;;;;;;;;25.30;99.90;;;;;;5053680;28;20365;-47
2022/05/17 11:27:04;;;;;;;;;;;25.40;99.90;;;;;;5053824;28;19912;-47
2022/05/17 11:29:39;;;;;;;;;;;25.40;99.90;;;;;;5053658;28;19912;-48
2022/05/17 11:32:16;;;;;;;;;;;25.40;99.90;;;;;;5053857;28;19908;-47
2022/05/17 11:34:45;;;;;;;;;;;25.40;99.90;;;;;;5052111;28;19940;-47
2022/05/17 11:37:41;;;;;;;;;;;25.40;99.90;;;;;;5053351;28;19909;-47
2022/05/17 11:40:08;;;;;;;;;;;25.40;99.90;;;;;;5044624;28;19909;-47
2022/05/17 11:42:33;;;;;;;;;;;25.40;99.90;;;;;;5053574;28;19912;-48
2022/05/17 11:45:18;;;;;;;;;;;25.50;99.90;;;;;;5053330;28;19905;-47
2022/05/17 11:47:43;;;;;;;;;;;25.40;99.90;;;;;;5053263;28;19966;-47
2022/05/17 11:50:15;;;;;;;;;;;25.50;99.90;;;;;;5053303;28;19909;-47
2022/05/17 11:52:45;;;;;;;;;;;25.50;99.90;;;;;;5053176;28;19970;-48
2022/05/17 11:55:12;;;;;;;;;;;25.50;99.90;;;;;;5053261;28;20264;-48
2022/05/17 11:57:38;;;;;;;;;;;25.50;99.90;;;;;;5053469;28;19908;-48
2022/05/17 12:00:30;;;;;;;;;;;25.50;99.90;;;;;;5052900;28;19917;-48
2022/05/17 12:03:00;;;;;;;;;;;25.50;99.90;;;;;;5052973;28;19912;-48
2022/05/17 12:05:38;;;;;;;;;;;25.50;99.90;;;;;;5052554;28;19913;-47
2022/05/17 12:08:22;;;;;;;;;;;25.60;99.90;;;;;;5052527;28;19908;-48
2022/05/17 12:10:48;;;;;;;;;;;25.60;99.90;;;;;;5052838;28;19928;-48
2022/05/17 12:13:15;;;;;;;;;;;25.60;99.90;;;;;;5052664;28;20279;-48
2022/05/17 12:15:44;;;;;;;;;;;25.60;99.90;;;;;;5052829;28;19908;-47
2022/05/17 12:18:10;;;;;;;;;;;25.60;99.90;;;;;;5052776;28;20369;-48
2022/05/17 12:20:51;;;;;;;;;;;25.70;99.90;;;;;;5052784;28;19998;-48
2022/05/17 12:23:22;;;;;;;;;;;25.70;99.90;;;;;;5052437;28;20000;-48
2022/05/17 12:26:05;;;;;;;;;;;25.70;99.90;;;;;;5052448;28;20268;-48
2022/05/17 12:28:33;;;;;;;;;;;25.70;99.90;;;;;;5052344;28;19916;-47
2022/05/17 12:31:02;;;;;;;;;;;25.70;99.90;;;;;;5052559;28;19904;-47
2022/05/17 12:33:32;;;;;;;;;;;25.70;99.90;;;;;;5052375;28;20474;-48
2022/05/17 12:36:16;;;;;;;;;;;25.70;99.90;;;;;;5052618;28;20294;-48
2022/05/17 12:44:20;;;;;;;;;;;25.70;99.90;;;;;;5052387;28;19911;-48
2022/05/17 12:46:48;;;;;;;;;;;25.80;99.90;;;;;;5052083;28;19982;-48
2022/05/17 12:49:25;;;;;;;;;;;25.80;99.90;;;;;;5052096;28;19912;-48
2022/05/17 12:51:52;;;;;;;;;;;25.80;99.90;;;;;;5051996;28;19974;-48
2022/05/17 12:54:21;;;;;;;;;;;25.80;99.90;;;;;;5052163;28;19912;-49
2022/05/17 12:56:47;;;;;;;;;;;25.80;99.90;;;;;;5051878;28;19912;-47
2022/05/17 12:59:13;;;;;;;;;;;25.80;99.90;;;;;;5051918;28;19974;-47
2022/05/17 13:01:43;;;;;;;;;;;25.80;99.90;;;;;;5051983;28;19921;-47
2022/05/17 13:04:10;;;;;;;;;;;25.90;99.90;;;;;;5052140;28;19998;-47
2022/05/17 13:06:38;;;;;;;;;;;25.90;99.90;;;;;;5051606;28;19913;-46
2022/05/17 13:09:06;;;;;;;;;;;25.90;99.90;;;;;;5051800;28;19905;-46
2022/05/17 13:11:32;;;;;;;;;;;25.90;99.90;;;;;;5051806;28;19904;-46
2022/05/17 13:14:11;;;;;;;;;;;25.90;99.90;;;;;;5051647;28;19905;-47
2022/05/17 13:16:40;;;;;;;;;;;25.90;99.90;;;;;;5051677;28;20427;-46
2022/05/17 13:19:09;;;;;;;;;;;26.00;99.90;;;;;;5051508;28;19905;-47
2022/05/17 13:21:36;;;;;;;;;;;25.90;99.90;;;;;;5047995;28;19920;-47
2022/05/17 13:24:04;;;;;;;;;;;26.00;99.90;;;;;;5038753;28;19905;-47
2022/05/17 13:26:34;;;;;;;;;;;26.00;99.90;;;;;;5041863;28;20257;-47
2022/05/17 13:29:18;;;;;;;;;;;26.00;99.90;;;;;;5050842;28;19912;-47
2022/05/17 13:31:43;;;;;;;;;;;26.00;99.90;;;;;;5045414;28;19920;-47
2022/05/17 13:34:15;;;;;;;;;;;26.00;99.90;;;;;;5047008;28;19909;-47
2022/05/17 13:36:41;;;;;;;;;;;26.00;99.90;;;;;;5047938;28;19928;-47
2022/05/17 13:39:17;;;;;;;;;;;26.00;99.90;;;;;;5046445;28;19915;-48
2022/05/17 13:41:43;;;;;;;;;;;26.00;99.90;;;;;;5045627;28;19945;-47
2022/05/17 13:44:09;;;;;;;;;;;26.00;99.90;;;;;;5049627;28;20331;-48
2022/05/17 13:46:37;;;;;;;;;;;26.00;99.90;;;;;;5051311;28;19917;-49
2022/05/17 13:49:08;;;;;;;;;;;26.00;99.90;;;;;;5049018;28;19908;-48
2022/05/17 13:51:49;;;;;;;;;;;26.10;99.90;;;;;;5048595;28;19905;-48
2022/05/17 13:54:25;;;;;;;;;;;26.00;99.90;;;;;;5044704;28;19909;-48
2022/05/17 13:56:53;;;;;;;;;;;26.10;99.90;;;;;;5046556;28;19905;-48
2022/05/17 13:59:19;;;;;;;;;;;26.10;99.90;;;;;;5050689;28;19927;-49
2022/05/17 14:01:55;;;;;;;;;;;26.10;99.90;;;;;;5050105;28;20264;-47
2022/05/17 14:04:25;;;;;;;;;;;26.10;99.90;;;;;;5056680;28;19912;-47
2022/05/17 14:06:58;;;;;;;;;;;26.10;99.90;;;;;;5051009;28;20528;-49
2022/05/17 14:12:18;;;;;;;;;;;26.10;99.90;;;;;;5049776;28;19970;-49
2022/05/17 14:14:48;;;;;;;;;;;26.10;99.90;;;;;;5031739;28;19913;-49
2022/05/17 14:17:18;;;;;;;;;;;26.10;99.90;;;;;;5034500;28;19905;-50
2022/05/17 14:19:47;;;;;;;;;;;26.10;99.90;;;;;;5038938;28;19905;-47
2022/05/17 14:22:13;;;;;;;;;;;26.20;99.90;;;;;;5041141;28;19932;-48
2022/05/17 14:24:39;;;;;;;;;;;26.20;99.90;;;;;;5045569;28;19955;-49
2022/05/17 14:27:05;;;;;;;;;;;26.20;99.90;;;;;;5047363;28;19916;-47
2022/05/17 14:29:30;;;;;;;;;;;26.20;99.90;;;;;;5043572;28;19905;-50
2022/05/17 14:31:57;;;;;;;;;;;26.20;99.90;;;;;;5051845;28;19951;-48
2022/05/17 14:34:24;;;;;;;;;;;26.20;99.90;;;;;;5053179;28;19991;-49
2022/05/17 14:36:50;;;;;;;;;;;26.20;99.90;;;;;;5052666;28;19916;-50
2022/05/17 14:39:16;;;;;;;;;;;26.10;99.90;;;;;;5053211;28;19943;-51
2022/05/17 14:41:43;;;;;;;;;;;26.10;99.90;;;;;;5052809;28;20387;-50
2022/05/17 14:44:09;;;;;;;;;;;26.10;99.90;;;;;;5053740;28;19997;-48
2022/05/17 14:46:35;;;;;;;;;;;26.10;99.90;;;;;;5048202;28;19921;-49
2022/05/17 14:49:01;;;;;;;;;;;26.10;99.90;;;;;;5050857;28;19916;-49